Time;durP1;ratioP1;P1;durP2;ratioP2;P2;SDS_P1;SDS_P2;PMS_P1;PMS_P2;Temp;Humidity;BMP_temperature;BMP_pressure;BME280_temperature;BME280_humidity;BME280_pressure;Samples;Min_cycle;Max_cycle;Signal;HPM_P1;HPM_P2
2022/05/20 00:00:34;;;;;;;2.67;2.28;;;23.20;41.90;;;;;;6285198;27;86080;-75
2022/05/20 00:03:34;;;;;;;3.33;2.33;;;23.20;41.80;;;;;;6286207;27;81090;-74
2022/05/20 00:06:35;;;;;;;3.40;2.17;;;23.20;41.80;;;;;;6283580;27;81575;-75
2022/05/20 00:09:35;;;;;;;3.42;2.33;;;23.20;41.80;;;;;;6286318;27;81744;-73
2022/05/20 00:12:36;;;;;;;4.00;2.30;;;23.20;41.80;;;;;;6286350;27;80520;-75
2022/05/20 00:15:37;;;;;;;5.03;2.17;;;23.20;41.80;;;;;;6283924;27;81507;-75
2022/05/20 00:18:38;;;;;;;3.25;2.15;;;23.20;41.70;;;;;;6284288;27;80321;-76
2022/05/20 00:21:39;;;;;;;4.75;2.85;;;23.20;41.60;;;;;;6281070;27;80656;-76
2022/05/20 00:25:45;;;;;;;3.60;2.22;;;23.20;41.50;;;;;;6285695;27;81601;-76
2022/05/20 00:28:00;;;;;;;3.30;2.30;;;23.20;41.60;;;;;;6281054;27;81492;-75
2022/05/20 00:31:02;;;;;;;2.40;1.75;;;23.20;41.70;;;;;;6283894;27;80461;-74
2022/05/20 00:34:02;;;;;;;2.97;2.08;;;23.20;41.40;;;;;;6285451;27;80494;-79
2022/05/20 00:37:03;;;;;;;5.45;2.45;;;23.20;41.60;;;;;;6281287;27;81660;-78
2022/05/20 00:40:03;;;;;;;3.33;2.17;;;23.20;41.40;;;;;;6285504;27;80884;-78
2022/05/20 00:43:04;;;;;;;3.20;2.13;;;23.20;41.40;;;;;;6285084;27;80204;-77
2022/05/20 00:46:04;;;;;;;4.35;2.17;;;23.20;41.50;;;;;;6278634;27;85922;-78
2022/05/20 00:49:05;;;;;;;5.60;2.85;;;23.20;41.50;;;;;;6269278;27;81232;-78
2022/05/20 00:52:05;;;;;;;3.35;2.00;;;23.20;41.30;;;;;;6285585;27;80161;-77
2022/05/20 00:55:06;;;;;;;4.15;2.20;;;23.20;41.30;;;;;;6285292;27;80579;-76
2022/05/20 00:58:07;;;;;;;2.92;1.92;;;23.20;41.30;;;;;;6285424;27;80432;-76
2022/05/20 01:01:07;;;;;;;3.17;2.20;;;23.20;41.30;;;;;;6283030;27;80207;-75
2022/05/20 01:04:08;;;;;;;2.58;1.80;;;23.20;41.30;;;;;;6271601;27;80369;-77
2022/05/20 01:07:09;;;;;;;3.55;2.28;;;23.20;41.30;;;;;;6285171;27;80290;-76
2022/05/20 01:10:09;;;;;;;2.83;2.10;;;23.20;41.30;;;;;;6282978;27;81923;-75
2022/05/20 01:13:10;;;;;;;4.15;1.92;;;23.20;41.30;;;;;;6283437;27;81756;-76
2022/05/20 01:16:11;;;;;;;3.10;2.05;;;23.20;41.20;;;;;;6283164;27;81460;-76
2022/05/20 01:19:12;;;;;;;2.97;1.90;;;23.20;41.40;;;;;;6278970;27;80330;-76
2022/05/20 01:22:13;;;;;;;3.13;1.88;;;23.10;41.30;;;;;;6284852;27;82129;-75
2022/05/20 01:25:13;;;;;;;3.10;1.90;;;23.10;41.20;;;;;;6285279;27;81246;-77
2022/05/20 01:28:14;;;;;;;1.88;1.60;;;23.10;41.00;;;;;;6284993;27;80003;-77
2022/05/20 01:31:14;;;;;;;4.05;2.03;;;23.10;41.10;;;;;;6283307;27;80377;-77
2022/05/20 01:34:15;;;;;;;1.90;1.63;;;23.10;41.20;;;;;;6279425;27;81215;-78
2022/05/20 01:37:15;;;;;;;3.03;1.77;;;23.10;41.00;;;;;;6285074;27;80731;-76
2022/05/20 01:40:16;;;;;;;2.00;1.45;;;23.10;41.20;;;;;;6284924;27;80167;-78
2022/05/20 01:43:16;;;;;;;3.17;1.60;;;23.10;41.00;;;;;;6283310;27;81601;-77
2022/05/20 01:46:17;;;;;;;7.93;1.73;;;23.10;41.20;;;;;;6276665;27;79978;-75
2022/05/20 01:49:17;;;;;;;5.00;2.25;;;23.10;41.30;;;;;;6284724;27;80362;-78
2022/05/20 01:52:18;;;;;;;4.20;1.92;;;23.10;41.20;;;;;;6284200;27;80690;-74
2022/05/20 01:55:18;;;;;;;1.88;1.60;;;23.10;41.20;;;;;;6284519;27;80192;-75
2022/05/20 01:58:19;;;;;;;2.25;1.73;;;23.10;41.00;;;;;;6284880;27;80684;-75
2022/05/20 02:01:19;;;;;;;2.97;2.08;;;23.10;41.10;;;;;;6280367;27;81124;-76
2022/05/20 02:04:20;;;;;;;2.13;1.55;;;23.10;40.70;;;;;;6279994;27;81464;-76
2022/05/20 02:07:20;;;;;;;2.00;1.50;;;23.10;40.70;;;;;;6284878;27;80303;-74
2022/05/20 02:10:21;;;;;;;3.83;1.77;;;23.10;40.80;;;;;;6284467;27;80513;-73
2022/05/20 02:13:21;;;;;;;4.75;2.13;;;23.10;40.80;;;;;;6282057;27;83313;-75
2022/05/20 02:16:22;;;;;;;4.65;2.05;;;23.10;40.80;;;;;;6274689;27;80819;-74
2022/05/20 02:19:22;;;;;;;2.55;1.85;;;23.10;40.90;;;;;;6284396;27;80840;-74
2022/05/20 02:22:23;;;;;;;2.70;1.63;;;23.10;40.90;;;;;;6284089;27;81015;-74
2022/05/20 02:25:23;;;;;;;1.70;1.42;;;23.10;40.90;;;;;;6283220;27;80945;-75
2022/05/20 02:28:24;;;;;;;2.58;1.88;;;23.10;40.90;;;;;;6274674;27;80674;-74
2022/05/20 02:31:24;;;;;;;3.22;1.85;;;23.10;40.90;;;;;;6282057;27;81336;-76
2022/05/20 02:34:25;;;;;;;2.10;1.58;;;23.10;41.00;;;;;;6283052;27;87437;-74
2022/05/20 02:37:25;;;;;;;1.80;1.63;;;23.10;40.90;;;;;;6283787;27;80309;-74
2022/05/20 02:40:26;;;;;;;4.82;2.03;;;23.10;40.90;;;;;;6283281;27;80894;-73
2022/05/20 02:43:26;;;;;;;2.83;1.80;;;23.10;40.70;;;;;;6266453;27;80423;-72
2022/05/20 02:46:27;;;;;;;5.07;2.00;;;23.10;40.90;;;;;;6258250;27;80257;-74
2022/05/20 02:49:27;;;;;;;2.83;1.75;;;23.10;40.80;;;;;;6266675;27;80305;-74
2022/05/20 02:52:28;;;;;;;2.97;1.60;;;23.10;41.00;;;;;;6283003;27;80782;-73
2022/05/20 02:55:28;;;;;;;4.10;1.55;;;23.10;41.00;;;;;;6282888;27;80357;-74
2022/05/20 03:05:21;;;;;;;2.33;1.40;;;23.10;40.80;;;;;;6280235;27;85281;-73
2022/05/20 03:08:22;;;;;;;3.45;1.60;;;23.10;40.50;;;;;;6282174;27;81201;-73
2022/05/20 03:11:22;;;;;;;2.28;1.65;;;23.10;40.50;;;;;;6281163;27;80507;-72
2022/05/20 03:14:23;;;;;;;2.03;1.73;;;23.10;40.90;;;;;;6281776;27;80769;-71
2022/05/20 03:17:23;;;;;;;1.70;1.60;;;23.10;40.70;;;;;;6282371;27;80693;-72
2022/05/20 03:20:24;;;;;;;1.88;1.50;;;23.10;40.50;;;;;;6281895;27;80810;-73
2022/05/20 03:23:24;;;;;;;4.40;1.55;;;23.10;40.60;;;;;;6282370;27;80200;-73
2022/05/20 03:26:25;;;;;;;4.95;1.70;;;23.10;40.60;;;;;;6266162;27;80323;-73
2022/05/20 03:29:25;;;;;;;1.40;1.27;;;23.10;41.30;;;;;;6267533;27;80750;-73
2022/05/20 03:32:26;;;;;;;1.50;1.38;;;23.10;40.80;;;;;;6268572;27;81716;-68
2022/05/20 03:35:26;;;;;;;4.20;1.73;;;23.10;40.70;;;;;;6277957;27;80490;-74
2022/05/20 03:38:27;;;;;;;2.45;1.60;;;23.10;41.20;;;;;;6283285;27;81486;-74
2022/05/20 03:41:27;;;;;;;3.40;2.03;;;23.10;41.10;;;;;;6268491;27;80893;-76
2022/05/20 03:44:28;;;;;;;4.63;1.58;;;23.10;41.40;;;;;;6286516;27;80823;-73
2022/05/20 03:47:28;;;;;;;2.15;1.65;;;23.10;41.40;;;;;;6286615;27;80342;-70
2022/05/20 03:50:29;;;;;;;4.47;1.88;;;23.10;42.40;;;;;;6286432;27;80315;-72
2022/05/20 03:53:30;;;;;;;3.47;1.70;;;23.10;42.20;;;;;;6271044;27;80325;-70
2022/05/20 03:56:30;;;;;;;2.47;1.55;;;23.10;42.40;;;;;;6273343;27;81729;-72
2022/05/20 03:59:33;;;;;;;4.75;1.80;;;23.10;42.40;;;;;;6267245;27;83341;-70
2022/05/20 04:02:33;;;;;;;8.85;1.83;;;23.10;42.60;;;;;;6277772;27;80549;-69
2022/05/20 04:05:34;;;;;;;1.50;1.40;;;23.10;42.50;;;;;;6285837;27;80886;-67
2022/05/20 04:08:35;;;;;;;6.50;1.83;;;23.20;42.40;;;;;;6269193;27;81682;-67
2022/05/20 04:11:35;;;;;;;8.52;1.88;;;23.20;42.60;;;;;;6285992;27;81136;-67
2022/05/20 04:14:36;;;;;;;6.22;1.67;;;23.20;42.60;;;;;;6285016;27;81119;-68
2022/05/20 04:17:36;;;;;;;7.00;1.75;;;23.10;42.60;;;;;;6265962;27;81253;-67
2022/05/20 04:20:36;;;;;;;4.43;1.45;;;23.20;42.70;;;;;;6268378;27;81377;-66
2022/05/20 04:23:37;;;;;;;4.18;1.40;;;23.20;43.10;;;;;;6264604;27;81925;-67
2022/05/20 04:26:37;;;;;;;7.70;1.70;;;23.10;42.90;;;;;;6266651;27;80376;-66
2022/05/20 04:29:38;;;;;;;2.22;1.33;;;23.20;43.10;;;;;;6272537;27;80635;-67
2022/05/20 04:32:39;;;;;;;7.22;1.55;;;23.20;43.10;;;;;;6272282;27;80039;-66
2022/05/20 04:35:39;;;;;;;3.47;1.88;;;23.20;43.00;;;;;;6285511;27;80324;-66
2022/05/20 04:38:39;;;;;;;17.08;2.08;;;23.20;43.10;;;;;;6285728;27;80592;-67
2022/05/20 04:48:18;;;;;;;2.15;1.60;;;23.30;43.00;;;;;;6279971;27;80382;-74
2022/05/20 04:51:19;;;;;;;6.32;1.92;;;23.40;43.00;;;;;;6285441;27;80341;-72
2022/05/20 04:57:41;;;;;;;10.80;1.83;;;23.40;42.90;;;;;;6273808;27;80415;-71
2022/05/20 05:00:41;;;;;;;2.53;1.75;;;23.30;42.90;;;;;;6261313;27;80660;-74
2022/05/20 05:03:42;;;;;;;1.30;1.20;;;23.40;42.90;;;;;;6278460;27;80487;-70
2022/05/20 05:06:42;;;;;;;7.85;1.90;;;23.30;43.20;;;;;;6278720;27;80684;-70
2022/05/20 05:09:42;;;;;;;4.00;1.83;;;23.40;43.20;;;;;;6275966;27;81398;-69
2022/05/20 05:12:43;;;;;;;4.13;2.17;;;23.40;43.20;;;;;;6284372;27;80819;-73
2022/05/20 05:15:44;;;;;;;5.68;1.67;;;23.40;43.10;;;;;;6283787;27;80265;-67
2022/05/20 05:18:44;;;;;;;4.40;1.60;;;23.40;43.00;;;;;;6283806;27;80864;-68
2022/05/20 05:21:45;;;;;;;3.55;1.50;;;23.40;43.00;;;;;;6283781;27;80570;-68
2022/05/20 05:24:45;;;;;;;3.47;1.67;;;23.40;43.00;;;;;;6283507;27;80459;-68
2022/05/20 05:27:46;;;;;;;3.08;1.65;;;23.40;42.90;;;;;;6278498;27;80876;-68
2022/05/20 05:30:47;;;;;;;4.85;1.88;;;23.40;42.90;;;;;;6277734;27;80978;-69
2022/05/20 05:33:47;;;;;;;4.53;1.70;;;23.40;42.90;;;;;;6282931;27;80269;-68
2022/05/20 05:36:48;;;;;;;3.50;1.63;;;23.40;42.70;;;;;;6283456;27;81063;-68
2022/05/20 05:39:48;;;;;;;5.63;1.70;;;23.40;42.70;;;;;;6283790;27;81508;-68
2022/05/20 05:42:49;;;;;;;5.72;1.95;;;23.40;42.50;;;;;;6283814;27;80780;-68
2022/05/20 05:45:49;;;;;;;2.45;1.42;;;23.40;42.40;;;;;;6283743;27;80317;-68
2022/05/20 05:48:50;;;;;;;7.20;1.45;;;23.40;42.30;;;;;;6283675;27;80597;-68
2022/05/20 05:51:50;;;;;;;6.25;2.17;;;23.40;42.30;;;;;;6282935;27;80474;-68
2022/05/20 05:54:51;;;;;;;4.20;1.98;;;23.40;42.20;;;;;;6282751;27;80239;-68
2022/05/20 05:57:51;;;;;;;7.07;2.30;;;23.40;42.20;;;;;;6278317;27;81458;-68
2022/05/20 06:00:52;;;;;;;3.30;2.13;;;23.30;41.70;;;;;;6266583;27;80179;-67
2022/05/20 06:03:52;;;;;;;2.85;2.17;;;23.10;40.70;;;;;;6262820;27;80829;-68
2022/05/20 06:06:53;;;;;;;4.15;2.42;;;23.10;40.80;;;;;;6260459;27;80798;-68
2022/05/20 06:09:53;;;;;;;7.82;2.10;;;23.10;40.80;;;;;;6270252;27;80814;-67
2022/05/20 06:12:55;;;;;;;8.73;2.38;;;23.10;40.50;;;;;;6279991;27;80184;-66
2022/05/20 06:15:55;;;;;;;6.63;1.95;;;23.00;40.20;;;;;;6281953;27;81129;-70
2022/05/20 06:18:56;;;;;;;2.30;1.90;;;22.90;39.80;;;;;;6281828;27;80193;-68
2022/05/20 06:21:56;;;;;;;8.45;2.47;;;22.90;39.80;;;;;;6282382;27;80369;-68
2022/05/20 06:24:57;;;;;;;9.45;3.40;;;22.80;40.10;;;;;;6270176;27;80508;-69
2022/05/20 06:27:57;;;;;;;7.80;3.72;;;22.80;39.90;;;;;;6279929;27;81659;-68
2022/05/20 06:30:58;;;;;;;10.13;2.85;;;22.60;40.00;;;;;;6278432;27;80277;-67
2022/05/20 06:33:58;;;;;;;6.85;3.17;;;22.70;40.00;;;;;;6282985;27;80523;-67
2022/05/20 06:40:18;;;;;;;9.82;3.08;;;22.70;40.10;;;;;;6283172;27;80714;-68
2022/05/20 06:43:19;;;;;;;4.72;2.40;;;22.70;40.40;;;;;;6281627;27;81212;-67
2022/05/20 06:46:20;;;;;;;16.92;3.15;;;22.80;40.30;;;;;;6280308;27;81958;-67
2022/05/20 06:49:20;;;;;;;9.95;3.58;;;22.80;40.40;;;;;;6282382;27;80715;-67
2022/05/20 06:52:21;;;;;;;7.03;2.75;;;22.80;40.60;;;;;;6282750;27;80395;-67
2022/05/20 06:55:21;;;;;;;23.50;2.80;;;22.70;41.20;;;;;;6282865;27;80857;-66
2022/05/20 06:58:22;;;;;;;8.90;3.53;;;22.50;41.30;;;;;;6278752;27;80666;-67
2022/05/20 07:01:22;;;;;;;11.63;3.25;;;22.60;41.50;;;;;;6275340;27;82133;-67
2022/05/20 07:04:23;;;;;;;20.48;3.60;;;22.70;41.40;;;;;;6276813;27;81697;-69
2022/05/20 07:07:24;;;;;;;8.30;3.33;;;22.70;41.50;;;;;;6281420;27;80626;-68
2022/05/20 07:10:24;;;;;;;7.55;2.60;;;22.80;41.60;;;;;;6284716;27;80463;-67
2022/05/20 07:13:25;;;;;;;6.60;3.00;;;22.90;41.50;;;;;;6280100;27;80564;-67
2022/05/20 07:16:25;;;;;;;7.65;2.53;;;23.00;41.60;;;;;;6286610;27;80103;-67
2022/05/20 07:19:26;;;;;;;9.27;2.80;;;23.00;41.80;;;;;;6286508;27;81156;-68
2022/05/20 07:22:26;;;;;;;8.82;3.28;;;22.90;42.30;;;;;;6279908;27;80989;-67
2022/05/20 07:25:27;;;;;;;7.47;2.75;;;23.00;42.50;;;;;;6286259;27;80353;-67
2022/05/20 07:28:28;;;;;;;10.07;3.15;;;23.10;42.70;;;;;;6280707;27;80969;-67
2022/05/20 07:31:28;;;;;;;9.48;3.53;;;23.00;42.80;;;;;;6286804;27;80389;-67
2022/05/20 07:34:30;;;;;;;7.15;2.72;;;23.00;43.10;;;;;;6286956;27;80363;-66
2022/05/20 07:37:30;;;;;;;20.00;4.13;;;23.10;43.10;;;;;;6286058;27;80630;-67
2022/05/20 07:40:31;;;;;;;7.03;2.40;;;23.10;43.10;;;;;;6286145;27;80630;-67
2022/05/20 07:43:32;;;;;;;11.98;3.30;;;23.10;43.20;;;;;;6286294;27;83376;-67
2022/05/20 07:46:33;;;;;;;14.35;2.80;;;23.20;43.10;;;;;;6286564;27;80281;-67
2022/05/20 07:49:33;;;;;;;4.18;2.33;;;23.20;43.40;;;;;;6273042;27;80714;-67
2022/05/20 07:55:53;;;;;;;5.78;2.50;;;23.30;43.60;;;;;;6286158;27;80215;-65
2022/05/20 07:58:53;;;;;;;6.88;2.72;;;23.20;43.80;;;;;;6285770;27;81040;-67
2022/05/20 08:01:54;;;;;;;15.48;2.88;;;23.20;44.10;;;;;;6280719;27;82012;-67
2022/05/20 08:05:01;;;;;;;12.60;3.13;;;23.20;44.20;;;;;;6284553;27;80458;-69
2022/05/20 08:08:02;;;;;;;14.82;3.20;;;23.20;44.80;;;;;;6285443;27;85528;-70
2022/05/20 08:11:02;;;;;;;5.90;2.83;;;23.40;44.60;;;;;;6285870;27;81012;-70
2022/05/20 08:14:03;;;;;;;12.18;3.30;;;23.40;45.20;;;;;;6285610;27;80486;-68
2022/05/20 08:17:03;;;;;;;6.60;3.13;;;23.40;45.10;;;;;;6284825;27;80806;-68
2022/05/20 08:20:04;;;;;;;9.70;2.95;;;23.30;45.70;;;;;;6284422;27;80424;-71
2022/05/20 08:23:04;;;;;;;8.02;2.63;;;23.20;45.90;;;;;;6283613;27;80007;-74
2022/05/20 08:26:05;;;;;;;5.60;3.33;;;23.30;45.80;;;;;;6285625;27;80702;-70
2022/05/20 08:29:06;;;;;;;8.60;2.70;;;23.40;46.10;;;;;;6279617;27;81801;-77
2022/05/20 08:32:07;;;;;;;10.88;3.05;;;23.40;46.10;;;;;;6261086;27;80307;-66
2022/05/20 08:35:08;;;;;;;17.65;2.95;;;23.30;46.50;;;;;;6280133;27;80492;-67
2022/05/20 08:38:08;;;;;;;5.70;2.60;;;23.30;46.50;;;;;;6275065;27;80883;-68
2022/05/20 08:41:09;;;;;;;15.65;5.68;;;23.30;46.60;;;;;;6262762;27;80318;-68
2022/05/20 08:44:11;;;;;;;8.88;4.18;;;23.20;46.80;;;;;;6259731;27;80289;-69
2022/05/20 08:47:12;;;;;;;6.93;3.67;;;23.30;46.80;;;;;;6263262;27;81188;-67
2022/05/20 08:50:13;;;;;;;10.27;3.30;;;23.30;47.10;;;;;;6274744;27;80540;-68
2022/05/20 08:53:14;;;;;;;8.18;3.20;;;23.40;46.90;;;;;;6284975;27;80579;-68
2022/05/20 08:56:14;;;;;;;6.45;3.15;;;23.40;46.90;;;;;;6283343;27;80964;-68
2022/05/20 08:59:15;;;;;;;9.85;3.20;;;23.40;46.70;;;;;;6261172;27;80899;-68
2022/05/20 09:02:15;;;;;;;9.57;3.35;;;23.40;47.00;;;;;;6281226;27;80533;-68
2022/05/20 09:05:16;;;;;;;9.73;3.20;;;23.40;47.20;;;;;;6284760;27;80360;-67
2022/05/20 09:08:16;;;;;;;5.95;2.83;;;23.50;47.30;;;;;;6269395;27;80666;-67
2022/05/20 09:11:18;;;;;;;7.53;3.25;;;23.50;47.30;;;;;;6269073;27;80479;-67
2022/05/20 09:17:37;;;;;;;5.63;2.60;;;23.50;47.20;;;;;;6272045;27;81786;-66
2022/05/20 09:20:38;;;;;;;6.00;2.50;;;23.60;47.20;;;;;;6284248;27;82009;-67
2022/05/20 09:23:38;;;;;;;5.65;2.25;;;23.60;47.60;;;;;;6284581;27;80564;-68
2022/05/20 09:26:39;;;;;;;4.65;2.03;;;23.60;47.40;;;;;;6284082;27;80546;-67
2022/05/20 09:29:40;;;;;;;4.32;2.20;;;23.60;47.30;;;;;;6284425;27;80284;-67
2022/05/20 09:32:40;;;;;;;5.13;2.00;;;23.70;47.30;;;;;;6282460;27;81693;-67
2022/05/20 09:35:41;;;;;;;3.67;2.42;;;23.60;47.60;;;;;;6283897;27;80281;-67
2022/05/20 09:38:41;;;;;;;6.03;2.28;;;23.60;47.70;;;;;;6283855;27;81627;-67
2022/05/20 09:41:42;;;;;;;2.85;2.00;;;23.70;47.80;;;;;;6284290;27;80170;-69
2022/05/20 09:44:42;;;;;;;5.32;2.03;;;23.70;48.00;;;;;;6284059;27;80491;-68
2022/05/20 09:47:43;;;;;;;4.97;2.20;;;23.80;47.80;;;;;;6284372;27;80303;-67
2022/05/20 09:50:43;;;;;;;4.35;2.05;;;23.80;47.80;;;;;;6270184;27;80634;-67
2022/05/20 09:53:44;;;;;;;5.72;2.47;;;23.90;47.90;;;;;;6280716;27;80375;-67
2022/05/20 09:56:44;;;;;;;6.25;2.25;;;24.00;47.70;;;;;;6284010;27;81039;-67
2022/05/20 09:59:45;;;;;;;7.70;2.00;;;24.00;47.60;;;;;;6283948;27;80379;-66
2022/05/20 10:02:46;;;;;;;6.80;1.98;;;24.00;47.60;;;;;;6274811;27;80344;-67
2022/05/20 10:05:46;;;;;;;4.78;2.22;;;24.10;47.70;;;;;;6283068;27;80330;-67
2022/05/20 10:08:47;;;;;;;14.18;2.63;;;24.10;47.80;;;;;;6280301;27;80739;-67
2022/05/20 10:11:47;;;;;;;6.72;2.25;;;24.20;47.80;;;;;;6283573;27;80751;-67
2022/05/20 10:14:48;;;;;;;7.57;1.88;;;24.30;47.80;;;;;;6282860;27;80351;-67
2022/05/20 10:17:48;;;;;;;7.00;2.13;;;24.30;47.80;;;;;;6282445;27;80671;-66
2022/05/20 10:20:49;;;;;;;4.10;2.00;;;24.30;47.40;;;;;;6268552;27;80200;-67
2022/05/20 10:23:49;;;;;;;3.58;1.85;;;24.40;47.10;;;;;;6283649;27;80420;-69
2022/05/20 10:26:50;;;;;;;4.57;1.90;;;24.40;47.70;;;;;;6281623;27;81432;-68
2022/05/20 10:33:10;;;;;;;2.92;1.95;;;24.50;47.80;;;;;;6279600;27;80796;-72
2022/05/20 10:36:10;;;;;;;8.98;2.13;;;24.60;48.00;;;;;;6283191;27;80797;-69
2022/05/20 10:39:11;;;;;;;19.90;2.40;;;24.60;47.90;;;;;;6283092;27;80318;-70
2022/05/20 10:42:11;;;;;;;6.05;2.10;;;24.70;48.00;;;;;;6282310;27;81905;-69
2022/05/20 10:48:34;;;;;;;11.25;2.50;;;24.70;47.80;;;;;;6287700;27;80300;-70
2022/05/20 10:51:34;;;;;;;10.02;3.47;;;24.60;47.70;;;;;;6287384;27;80280;-71
2022/05/20 10:54:35;;;;;;;21.55;3.00;;;24.60;47.70;;;;;;6286910;27;80644;-70
2022/05/20 10:57:36;;;;;;;8.18;2.78;;;24.60;48.30;;;;;;6286941;27;80494;-68
2022/05/20 11:00:36;;;;;;;12.73;2.72;;;24.60;48.00;;;;;;6286651;27;80367;-68
2022/05/20 11:03:37;;;;;;;13.00;3.25;;;24.70;47.80;;;;;;6264418;27;80600;-68
2022/05/20 11:06:38;;;;;;;8.90;3.28;;;24.60;47.80;;;;;;6271688;27;80784;-68
2022/05/20 11:09:38;;;;;;;29.05;3.45;;;24.70;47.70;;;;;;6263340;27;86709;-69
2022/05/20 11:12:39;;;;;;;7.20;2.63;;;24.60;47.60;;;;;;6260729;27;81487;-67
2022/05/20 11:15:39;;;;;;;8.02;2.60;;;24.60;48.00;;;;;;6261022;27;80201;-67
2022/05/20 11:18:40;;;;;;;9.32;2.30;;;24.60;48.20;;;;;;6286375;27;80421;-68
2022/05/20 11:21:40;;;;;;;10.95;2.60;;;24.50;48.50;;;;;;6286258;27;80555;-67
2022/05/20 11:24:41;;;;;;;4.88;2.70;;;24.60;49.00;;;;;;6286458;27;80285;-67
2022/05/20 11:27:41;;;;;;;8.35;2.83;;;24.70;49.20;;;;;;6284529;27;80368;-68
2022/05/20 11:30:42;;;;;;;5.63;2.10;;;24.80;48.90;;;;;;6266309;27;80393;-68
2022/05/20 11:33:42;;;;;;;11.52;2.88;;;24.70;48.60;;;;;;6281424;27;80240;-68
2022/05/20 11:36:43;;;;;;;4.57;2.30;;;24.80;48.80;;;;;;6285923;27;80540;-68
2022/05/20 11:39:43;;;;;;;5.53;2.53;;;24.90;49.20;;;;;;6284926;27;80759;-69
2022/05/20 11:42:44;;;;;;;6.80;3.60;;;25.00;49.50;;;;;;6286033;27;81220;-68
2022/05/20 11:45:44;;;;;;;8.52;3.13;;;25.00;49.10;;;;;;6283066;27;80299;-69
2022/05/20 11:48:45;;;;;;;3.80;2.75;;;25.10;49.10;;;;;;6285964;27;80478;-69
2022/05/20 11:51:45;;;;;;;13.35;3.53;;;25.10;49.10;;;;;;6286319;27;80293;-69
2022/05/20 11:54:46;;;;;;;10.80;2.92;;;25.20;49.50;;;;;;6285757;27;80832;-68
2022/05/20 11:57:47;;;;;;;6.47;2.63;;;25.20;49.00;;;;;;6272239;27;80777;-65
2022/05/20 12:00:49;;;;;;;8.93;3.28;;;25.20;49.40;;;;;;6271594;27;80367;-67
2022/05/20 12:04:07;;;;;;;5.78;2.05;;;25.10;48.90;;;;;;6286037;27;80373;-67
2022/05/20 12:07:08;;;;;;;7.13;3.00;;;25.10;48.90;;;;;;6271036;27;80703;-69
2022/05/20 12:10:08;;;;;;;5.63;2.25;;;25.10;49.00;;;;;;6286503;27;81374;-69
2022/05/20 12:13:09;;;;;;;5.70;2.35;;;25.10;49.30;;;;;;6272932;27;81188;-67
2022/05/20 12:16:10;;;;;;;4.53;3.38;;;25.10;49.50;;;;;;6279839;27;81524;-68
2022/05/20 12:25:50;;;;;;;5.13;2.55;;;25.20;50.10;;;;;;6286052;27;80895;-69
2022/05/20 12:28:51;;;;;;;7.10;2.03;;;25.20;50.10;;;;;;6285784;27;81722;-68
2022/05/20 12:31:51;;;;;;;5.63;2.00;;;25.20;50.20;;;;;;6284237;27;81506;-68
2022/05/20 12:34:52;;;;;;;6.95;2.40;;;25.20;50.40;;;;;;6280346;27;81777;-72
2022/05/20 12:37:52;;;;;;;4.15;2.85;;;25.20;50.30;;;;;;6274193;27;81065;-69
2022/05/20 12:40:53;;;;;;;8.45;3.58;;;25.30;49.70;;;;;;6285362;27;81611;-69
2022/05/20 12:43:54;;;;;;;4.35;2.38;;;25.30;49.40;;;;;;6285699;27;87703;-73
2022/05/20 12:46:54;;;;;;;3.40;2.30;;;25.20;49.00;;;;;;6285910;27;80413;-73
2022/05/20 12:49:55;;;;;;;3.85;2.33;;;25.20;49.00;;;;;;6283960;27;81169;-68
2022/05/20 12:52:56;;;;;;;4.40;2.15;;;25.10;48.80;;;;;;6277510;27;80471;-68
2022/05/20 12:55:57;;;;;;;2.45;1.90;;;25.10;48.80;;;;;;6261688;27;80607;-66
2022/05/20 12:58:57;;;;;;;4.63;2.22;;;25.20;48.90;;;;;;6281496;27;80682;-66
2022/05/20 13:01:58;;;;;;;2.75;2.05;;;25.30;48.60;;;;;;6282168;27;82545;-65
2022/05/20 13:04:59;;;;;;;6.10;1.95;;;25.30;48.60;;;;;;6276764;27;80546;-68
2022/05/20 13:07:59;;;;;;;4.28;2.00;;;25.30;48.40;;;;;;6284285;27;84684;-66
2022/05/20 13:11:00;;;;;;;5.60;1.80;;;25.40;48.30;;;;;;6285057;27;80819;-67
2022/05/20 13:14:01;;;;;;;2.15;1.90;;;25.30;48.30;;;;;;6274575;27;82577;-67
2022/05/20 13:17:03;;;;;;;10.38;3.92;;;25.30;48.60;;;;;;6272334;27;81894;-66
2022/05/20 13:20:04;;;;;;;3.45;2.47;;;25.30;48.60;;;;;;6266119;27;87137;-66
2022/05/20 13:26:50;;;;;;;5.15;2.33;;;25.40;47.80;;;;;;6275545;27;80588;-67
2022/05/20 13:29:54;;;;;;;4.75;1.90;;;25.40;47.70;;;;;;6285166;27;80334;-67
2022/05/20 13:32:54;;;;;;;4.25;2.40;;;25.30;47.80;;;;;;6284741;27;80295;-68
2022/05/20 13:35:55;;;;;;;2.97;2.20;;;25.30;48.00;;;;;;6272394;27;80500;-67
2022/05/20 13:38:56;;;;;;;3.30;2.40;;;25.30;48.00;;;;;;6284409;27;80803;-68
2022/05/20 13:41:56;;;;;;;2.75;2.15;;;25.20;48.10;;;;;;6284049;27;81776;-68
2022/05/20 13:44:57;;;;;;;3.83;2.00;;;25.20;48.20;;;;;;6284644;27;80554;-67
2022/05/20 13:51:17;;;;;;;4.55;2.40;;;25.20;48.90;;;;;;6281485;27;80214;-67
2022/05/20 13:54:17;;;;;;;5.75;2.40;;;25.30;48.60;;;;;;6279039;27;80300;-67
2022/05/20 13:57:19;;;;;;;9.68;1.85;;;25.30;48.40;;;;;;6276242;27;80204;-67
2022/05/20 14:00:20;;;;;;;6.50;2.05;;;25.30;48.70;;;;;;6284282;27;81414;-68
2022/05/20 14:03:20;;;;;;;2.83;2.08;;;25.30;48.50;;;;;;6269405;27;80875;-68
2022/05/20 14:06:21;;;;;;;2.90;1.80;;;25.40;48.40;;;;;;6266948;27;80882;-67
2022/05/20 14:09:21;;;;;;;3.05;1.70;;;25.30;48.30;;;;;;6283887;27;81709;-68
2022/05/20 14:12:22;;;;;;;4.90;2.70;;;25.30;48.50;;;;;;6281834;27;80388;-68
2022/05/20 14:15:22;;;;;;;9.57;2.30;;;25.30;48.40;;;;;;6283278;27;80757;-68
2022/05/20 14:18:23;;;;;;;3.55;2.03;;;25.30;48.60;;;;;;6271575;27;80340;-68
2022/05/20 14:21:24;;;;;;;3.28;1.75;;;25.30;48.60;;;;;;6270399;27;80797;-68
2022/05/20 14:24:24;;;;;;;6.20;2.67;;;25.20;48.80;;;;;;6283413;27;80237;-70
2022/05/20 14:27:25;;;;;;;3.90;1.85;;;25.20;48.90;;;;;;6282554;27;80811;-69
2022/05/20 14:30:25;;;;;;;5.20;2.22;;;25.20;48.90;;;;;;6266042;27;80433;-69
2022/05/20 14:33:27;;;;;;;6.10;2.17;;;25.20;49.00;;;;;;6281316;27;80366;-68
2022/05/20 14:36:28;;;;;;;5.38;1.88;;;25.10;48.70;;;;;;6278970;27;81005;-70
2022/05/20 14:39:30;;;;;;;3.42;2.00;;;25.10;48.90;;;;;;6283623;27;80423;-69
2022/05/20 14:42:31;;;;;;;6.20;2.20;;;25.10;49.10;;;;;;6283876;27;80229;-69
2022/05/20 14:45:31;;;;;;;6.72;2.50;;;25.10;49.00;;;;;;6283680;27;80349;-69
2022/05/20 14:48:32;;;;;;;5.63;3.03;;;25.10;48.90;;;;;;6283515;27;81895;-69
2022/05/20 14:51:32;;;;;;;4.15;2.75;;;25.10;48.80;;;;;;6270838;27;81190;-69
2022/05/20 14:54:33;;;;;;;4.95;2.50;;;25.10;48.80;;;;;;6283568;27;80259;-69
2022/05/20 14:57:33;;;;;;;5.10;3.05;;;25.10;48.70;;;;;;6283007;27;81472;-69
2022/05/20 15:00:34;;;;;;;9.68;2.80;;;25.10;48.80;;;;;;6281723;27;83692;-67
2022/05/20 15:03:35;;;;;;;4.25;3.10;;;25.10;48.80;;;;;;6282403;27;80453;-66
2022/05/20 15:06:36;;;;;;;5.32;3.22;;;25.10;49.00;;;;;;6281937;27;83266;-68
2022/05/20 15:09:36;;;;;;;6.97;4.32;;;25.00;49.20;;;;;;6271937;27;80731;-69
2022/05/20 15:12:37;;;;;;;7.85;3.55;;;25.10;49.60;;;;;;6283242;27;80405;-75
2022/05/20 15:15:37;;;;;;;8.30;2.80;;;25.10;50.00;;;;;;6282521;27;80640;-66
2022/05/20 15:18:38;;;;;;;7.65;3.38;;;25.20;49.90;;;;;;6283091;27;80248;-67
2022/05/20 15:21:38;;;;;;;11.40;3.80;;;25.20;50.40;;;;;;6282770;27;81771;-64
2022/05/20 15:24:43;;;;;;;11.25;3.63;;;25.30;50.30;;;;;;6282946;27;80110;-67
2022/05/20 15:27:43;;;;;;;4.18;2.63;;;25.30;50.20;;;;;;6282874;27;80835;-68
2022/05/20 15:30:44;;;;;;;6.13;2.72;;;25.30;50.10;;;;;;6280032;27;81854;-68
2022/05/20 15:37:05;;;;;;;6.03;3.00;;;25.30;50.10;;;;;;6255262;27;81283;-71
2022/05/20 15:40:05;;;;;;;4.28;2.53;;;25.30;50.40;;;;;;6281983;27;81726;-70
2022/05/20 15:43:06;;;;;;;5.05;2.28;;;25.30;50.40;;;;;;6273687;27;80716;-69
2022/05/20 15:46:06;;;;;;;6.53;2.70;;;25.30;50.40;;;;;;6281324;27;80624;-69
2022/05/20 15:49:07;;;;;;;5.43;2.80;;;25.30;50.50;;;;;;6266351;27;81591;-70
2022/05/20 15:52:07;;;;;;;11.60;3.65;;;25.40;50.40;;;;;;6265074;27;80372;-70
2022/05/20 15:55:08;;;;;;;6.15;3.03;;;25.30;50.90;;;;;;6269916;27;80487;-71
2022/05/20 15:58:08;;;;;;;8.60;2.88;;;25.30;50.30;;;;;;6264394;27;81667;-70
2022/05/20 16:01:09;;;;;;;3.55;2.53;;;25.30;50.40;;;;;;6286805;27;80602;-69
2022/05/20 16:04:09;;;;;;;4.80;2.63;;;25.30;50.80;;;;;;6288443;27;80227;-65
2022/05/20 16:07:10;;;;;;;5.20;2.90;;;25.30;50.70;;;;;;6287263;27;80543;-71
2022/05/20 16:10:10;;;;;;;6.53;2.40;;;25.30;50.90;;;;;;6272017;27;81205;-70
2022/05/20 16:13:11;;;;;;;8.27;2.97;;;25.30;51.00;;;;;;6287054;27;81134;-73
2022/05/20 16:16:11;;;;;;;8.65;2.65;;;25.30;50.80;;;;;;6285596;27;80034;-70
2022/05/20 16:19:12;;;;;;;9.75;2.95;;;25.30;51.10;;;;;;6279313;27;80882;-69
2022/05/20 16:22:13;;;;;;;7.13;3.80;;;25.30;51.20;;;;;;6281934;27;80677;-67
2022/05/20 16:25:13;;;;;;;22.33;4.18;;;25.30;51.30;;;;;;6285087;27;81765;-70
2022/05/20 16:28:14;;;;;;;27.38;4.45;;;25.30;51.40;;;;;;6286615;27;83079;-68